EDDE/ERF METAR and TAF weather

Enter ICAO airport designator
Station Type Date Time Source
EDDE METAR 2018/01/17 06:20 UTC NOAA

EDDE 170620Z 27018KT 9999 SCT016 BKN050 01/M00 Q0992 RESHSN R88/410195 TEMPO 25020G30KT 2500 SHSN BKN010CB


Station Type Date Time Source
EDDE Decoded METAR 2018/01/17 06:20 UTC NOAA

Erfurt-Bindersleben, Germany (EDDE) 50-59N 010-58E 322M
Jan 17, 2018 - 01:20 AM EST / 2018.01.17 0620 UTC
Wind: from the W (270 degrees) at 21 MPH (18 KT):0
Visibility: greater than 7 mile(s):0
Sky conditions: mostly cloudy
Weather: Cumulonimbus clouds observed
Temperature: 33 F (1 C)
Windchill: 21 F (-6 C):1
Dew Point: 32 F (0 C)
Relative Humidity: 93%
Pressure (altimeter): 29.29 in. Hg (0992 hPa)
ob: EDDE 170620Z 27018KT 9999 SCT016 BKN050 01/M00 Q0992 RESHSN R88/410195 TEMPO 25020G30KT 2500 SHSN BKN010CB
cycle: 6

Station Type Date Time Source
EDDE TAF 2018/01/17 06:27 UTC NOAA

TAF TAF EDDE 170500Z 1706/1806 20010KT 9999 SCT035
TEMPO 1706/1723 25015G30KT 2000 SHSN SCT008CB BKN010 PROB30
TEMPO 1707/1710 -TSRA BKN008CB
BECMG 1708/1711 26015KT


Example: see airport list